Azalea, Oregon
Current Conditions -  °F | °C
As of 3:56 PM on Thursday 27 Nov 2014 (Local Time) from KSXT Reporting Station
Overcast Overcast  
Wind Chill: 42°   Ceiling: 7500
Heat Index: 45°   Visibility: 10mi
Dew Point: 37°   Wind: 6mph
Humidity: 74%   Direction: NA
Pressure: 30.03"   Gusts: NA
Location:  42.8°N, 123.26°W
Report Text: KSXT 272356Z AUTO VRB05KT 10SM SCT043 OVC075 07/03 A3003 RMK AO2 RAB31E48 SLP162 P0000 60000 T00720028 10111 20067 55002
Loading
Personal Weather Stations






























Interactive Weather Map New forecast layout! Learn more

10-Day Weather Forecast

Advertisements
Track Severe Weather on mobile